Chester, PA (19013)

10:03 AM EDT on August 24, 2016 (GMT -0400)
Widener Observatory | | Change Station

Elev 85 ft 39.86 °N, 75.36 °W | Updated 2 minutes ago

Scattered Clouds
Scattered Clouds
81.2 °F
Feels Like 82 °F
N
5.0
Wind Variable Wind from ENE
Gusts 5.0 mph

Today
High -- | Low -- °F
--% Chance of Precip.
Yesterday
High -- | Low -- °F
Precip. -- in
Pressure 30.31 in
Visibility 10.0 miles
Clouds Few 23000 ft
Scattered Clouds 28000 ft
Heat Index 82 °F
Dew Point 60 °F
Humidity 48%
Rainfall 0.00 in
Snow Depth Not available.
6:22 AM 7:44 PM
Waning Gibbous, 57% visible
METAR KPHL 241354Z 23006KT 10SM FEW230 SCT280 24/17 A3031 RMK AO2 SLP262 T02440167
Pressure 30.31 in
Visibility 10.0 miles
Clouds Few 23000 ft
Scattered Clouds 28000 ft
Heat Index 82 °F
Dew Point 60 °F
Humidity 48%
Rainfall 0.00 in
Snow Depth Not available.
6:22 AM 7:44 PM
Waning Gibbous, 57% visible
METAR KPHL 241354Z 23006KT 10SM FEW230 SCT280 24/17 A3031 RMK AO2 SLP262 T02440167

10-Day Weather Forecast

Almanac

Astronomy

Aug. 24, 2016 Rise Set
Actual Time
Civil Twilight
Nautical Twilight
Astronomical Twilight
Moon
Length of Visible Light
Length of Day
Tomorrow will be .
, % of the Moon is Illuminated

Today's Extremes

State Highs State Lows

Community

WunderPhotos

Upload Photos

1,934,605 photos uploaded!

WunderBlog® & News

Nearby

Air Quality

  Air Quality AQ Index Pollutant
Not available.

Snow Depth

Station Depth Elevation

Earthquake Activity

City Distance Mag. Time & Date
Minimum magnitude displayed is 2.5.

Coastal Water Temperatures

Place Temperature

Stations

Nearby Weather Stations

Station Location Temp. Windchill Dew Point Humidity Wind Precip. Elev Updated Type
                   

Watches & Warnings

There are currently no watches in effect.